Admire, KS (66830)

5:21 PM CDT on July 28, 2016 (GMT -0500)
Admire Annex | | Change Station

Elev 1201 ft 38.68 °N, 96.05 °W | Updated 12 minutes ago

Clear
Clear
98.4 °F
Feels Like 106 °F
N
2.7
Wind Variable Wind from SE

Today
High -- | Low -- °F
--% Chance of Precip.
Yesterday
High -- | Low -- °F
Precip. -- in
Pressure 29.91 in
Visibility 10.0 miles
Clouds Clear
Heat Index 106 °F
Dew Point 70 °F
Humidity 40%
Rainfall 0.02 in
Snow Depth Not available.
6:22 AM 8:38 PM
Waning Crescent, 28% visible
METAR KEMP 282153Z AUTO 02008KT 10SM CLR 33/18 A2994 RMK AO2 SLP126 T03280178
Pressure 29.91 in
Visibility 10.0 miles
Clouds Clear
Heat Index 106 °F
Dew Point 70 °F
Humidity 40%
Rainfall 0.02 in
Snow Depth Not available.
6:22 AM 8:38 PM
Waning Crescent, 28% visible
METAR KEMP 282153Z AUTO 02008KT 10SM CLR 33/18 A2994 RMK AO2 SLP126 T03280178

10-Day Weather Forecast

Almanac

Astronomy

Jul. 28, 2016 Rise Set
Actual Time
Civil Twilight
Nautical Twilight
Astronomical Twilight
Moon
Length of Visible Light
Length of Day
Tomorrow will be .
, % of the Moon is Illuminated

Today's Extremes

State Highs State Lows

Community

WunderPhotos

Upload Photos

1,928,220 photos uploaded!

WunderBlog® & News

Nearby

Air Quality

  Air Quality AQ Index Pollutant
Not available.

Snow Depth

Station Depth Elevation

Earthquake Activity

City Distance Mag. Time & Date
Minimum magnitude displayed is 2.5.

Coastal Water Temperatures

Place Temperature

Stations

Nearby Weather Stations

Station Location Temp. Windchill Dew Point Humidity Wind Precip. Elev Updated Type
                   

Watches & Warnings

There are currently no watches in effect.